createdAt,value
2022-10-04T00:00:43.520Z,11.48
2022-10-04T00:03:37.927Z,11.40
2022-10-04T00:06:14.981Z,11.40
2022-10-04T00:08:46.398Z,11.38
2022-10-04T00:11:20.289Z,11.42
2022-10-04T00:13:59.768Z,11.49
2022-10-04T00:16:31.906Z,11.53
2022-10-04T00:19:25.300Z,11.54
2022-10-04T00:21:56.413Z,11.54
2022-10-04T00:24:30.256Z,11.57
2022-10-04T00:27:23.932Z,11.64
2022-10-04T00:30:23.341Z,11.68
2022-10-04T00:33:04.398Z,11.76
2022-10-04T00:35:31.698Z,11.83
2022-10-04T00:38:25.267Z,11.81
2022-10-04T00:41:00.390Z,11.84
2022-10-04T00:43:48.809Z,11.90
2022-10-04T00:46:24.315Z,11.98
2022-10-04T00:49:07.171Z,12.09
2022-10-04T00:52:05.721Z,12.09
2022-10-04T00:54:41.386Z,12.13
2022-10-04T00:57:08.459Z,12.17
2022-10-04T00:59:37.857Z,12.14
2022-10-04T01:02:21.788Z,12.15
2022-10-04T01:05:07.542Z,12.07
2022-10-04T01:07:42.076Z,12.01
2022-10-04T01:10:31.778Z,11.93
2022-10-04T01:13:18.058Z,11.80
2022-10-04T01:15:56.650Z,11.71
2022-10-04T01:18:23.597Z,11.66
2022-10-04T01:20:56.722Z,11.67
2022-10-04T01:23:41.865Z,11.75
2022-10-04T01:26:32.557Z,11.76
2022-10-04T01:29:13.811Z,11.77
2022-10-04T01:31:45.376Z,11.75
2022-10-04T01:34:16.157Z,11.78
2022-10-04T01:36:46.457Z,11.84
2022-10-04T01:39:15.009Z,11.84
2022-10-04T01:42:02.969Z,11.84
2022-10-04T01:44:39.777Z,11.80
2022-10-04T01:47:16.620Z,11.81
2022-10-04T01:49:46.882Z,11.80
2022-10-04T01:52:26.801Z,11.81
2022-10-04T01:55:05.915Z,11.82
2022-10-04T01:57:44.781Z,11.77
2022-10-04T02:00:13.631Z,11.79
2022-10-04T02:03:30.075Z,11.77
2022-10-04T02:06:01.262Z,11.79
2022-10-04T02:08:36.237Z,11.84
2022-10-04T02:11:05.604Z,11.93
2022-10-04T02:13:45.898Z,11.93
2022-10-04T02:16:13.566Z,11.96
2022-10-04T02:18:44.236Z,11.97
2022-10-04T02:21:15.581Z,11.96
2022-10-04T02:23:45.245Z,11.99
2022-10-04T02:26:12.704Z,12.02
2022-10-04T02:28:40.799Z,12.02
2022-10-04T02:31:29.953Z,12.00
2022-10-04T02:34:00.368Z,11.96
2022-10-04T02:36:29.743Z,11.93
2022-10-04T02:39:14.450Z,11.91
2022-10-04T02:41:46.531Z,11.89
2022-10-04T02:44:23.985Z,11.95
2022-10-04T02:46:51.573Z,11.98
2022-10-04T02:49:38.104Z,11.96
2022-10-04T02:52:16.384Z,11.96
2022-10-04T02:54:55.693Z,11.94
2022-10-04T02:57:23.993Z,11.89
2022-10-04T03:00:00.822Z,11.91
2022-10-04T03:02:31.015Z,11.91
2022-10-04T03:05:08.530Z,11.92
2022-10-04T03:07:37.181Z,11.89
2022-10-04T03:10:11.141Z,11.88
2022-10-04T03:12:40.580Z,11.86
2022-10-04T03:15:13.075Z,11.85
2022-10-04T03:17:44.025Z,11.81
2022-10-04T03:20:15.776Z,11.77
2022-10-04T03:22:47.070Z,11.74
2022-10-04T03:25:22.370Z,11.72
2022-10-04T03:27:51.325Z,11.67
2022-10-04T03:30:21.852Z,11.62
2022-10-04T03:32:49.571Z,11.68
2022-10-04T03:35:25.864Z,11.67
2022-10-04T03:37:56.369Z,11.64
2022-10-04T03:40:30.530Z,11.65
2022-10-04T03:42:59.440Z,11.61
2022-10-04T03:45:28.573Z,11.58
2022-10-04T03:48:02.522Z,11.56
2022-10-04T03:50:34.556Z,11.58
2022-10-04T03:53:07.918Z,11.58
2022-10-04T03:55:40.545Z,11.57
2022-10-04T03:58:11.309Z,11.56
2022-10-04T04:01:05.078Z,11.58
2022-10-04T04:03:55.393Z,11.58
2022-10-04T04:06:24.802Z,11.54
2022-10-04T04:08:57.531Z,11.55
2022-10-04T04:11:27.094Z,11.55
2022-10-04T04:14:06.927Z,11.50
2022-10-04T04:16:36.316Z,11.49
2022-10-04T04:19:11.614Z,11.47
2022-10-04T04:21:39.045Z,11.45
2022-10-04T04:24:28.286Z,11.52
2022-10-04T04:27:01.508Z,11.54
2022-10-04T04:29:39.511Z,11.53
2022-10-04T04:32:18.873Z,11.51
2022-10-04T04:35:00.733Z,11.49
2022-10-04T04:37:27.962Z,11.49
2022-10-04T04:39:57.906Z,11.50
2022-10-04T04:42:31.849Z,11.55
2022-10-04T04:45:07.759Z,11.62
2022-10-04T04:47:38.435Z,11.62
2022-10-04T04:50:11.912Z,11.64
2022-10-04T04:52:39.372Z,11.64
2022-10-04T04:55:15.909Z,11.65
2022-10-04T04:57:44.998Z,11.61
2022-10-04T05:00:18.505Z,11.62
2022-10-04T05:03:21.148Z,11.59
2022-10-04T05:05:48.741Z,11.62
2022-10-04T05:08:20.990Z,11.69
2022-10-04T05:10:58.267Z,11.69
2022-10-04T05:13:41.185Z,11.68
2022-10-04T05:16:22.455Z,11.72
2022-10-04T05:18:59.757Z,11.70
2022-10-04T05:21:40.829Z,11.72
2022-10-04T05:24:14.144Z,11.72
2022-10-04T05:26:42.438Z,11.72
2022-10-04T05:29:19.576Z,11.70
2022-10-04T05:32:13.590Z,11.67
2022-10-04T05:34:45.441Z,11.68
2022-10-04T05:37:22.388Z,11.69
2022-10-04T05:40:23.692Z,11.72
2022-10-04T05:42:52.306Z,11.73
2022-10-04T05:45:23.288Z,11.74
2022-10-04T05:47:52.489Z,11.80
2022-10-04T05:50:41.651Z,11.85
2022-10-04T05:53:15.580Z,11.83
2022-10-04T05:56:14.722Z,11.86
2022-10-04T05:58:50.904Z,11.89
2022-10-04T06:01:30.601Z,11.90
2022-10-04T06:04:20.696Z,11.92
2022-10-04T06:06:59.841Z,11.96
2022-10-04T06:10:06.004Z,12.00
2022-10-04T06:12:44.374Z,12.00
2022-10-04T06:15:39.853Z,12.05
2022-10-04T06:18:25.799Z,12.12
2022-10-04T06:21:06.448Z,12.14
2022-10-04T06:23:44.201Z,12.17
2022-10-04T06:26:18.206Z,12.16
2022-10-04T06:28:49.590Z,12.15
2022-10-04T06:31:40.426Z,12.19
2022-10-04T06:34:26.485Z,12.18
2022-10-04T06:36:57.115Z,12.21
2022-10-04T06:39:27.232Z,12.23
2022-10-04T06:42:09.596Z,12.24
2022-10-04T06:44:46.641Z,12.27
2022-10-04T06:47:48.903Z,12.36
2022-10-04T06:50:29.037Z,12.37
2022-10-04T06:53:16.774Z,12.35
2022-10-04T06:56:08.565Z,12.40
2022-10-04T06:58:51.149Z,12.46
2022-10-04T07:01:30.429Z,12.54
2022-10-04T07:04:41.167Z,12.57
2022-10-04T07:07:36.365Z,12.64
2022-10-04T07:10:10.238Z,12.66
2022-10-04T07:12:43.160Z,12.75
2022-10-04T07:15:30.651Z,12.86
2022-10-04T07:18:06.201Z,12.92
2022-10-04T07:20:36.455Z,13.02
2022-10-04T07:23:14.420Z,13.02
2022-10-04T07:25:49.151Z,13.12
2022-10-04T07:28:41.025Z,13.25
2022-10-04T07:31:32.781Z,13.41
2022-10-04T07:34:25.322Z,13.49
2022-10-04T07:36:56.789Z,13.61
2022-10-04T07:39:40.458Z,13.69
2022-10-04T07:42:14.726Z,13.67
2022-10-04T07:44:45.507Z,13.62
2022-10-04T07:47:30.062Z,13.63
2022-10-04T07:49:58.415Z,13.71
2022-10-04T07:52:49.021Z,13.79
2022-10-04T07:55:54.211Z,13.72
2022-10-04T07:58:29.378Z,13.74
2022-10-04T08:01:34.580Z,13.88
2022-10-04T08:04:25.938Z,14.11
2022-10-04T08:07:02.591Z,14.37
2022-10-04T08:09:46.082Z,14.43
2022-10-04T08:12:34.804Z,14.36
2022-10-04T08:15:35.991Z,14.48
2022-10-04T08:18:25.052Z,14.53
2022-10-04T08:20:59.368Z,14.62
2022-10-04T08:23:59.166Z,14.71
2022-10-04T08:27:00.428Z,14.72
2022-10-04T08:29:51.323Z,14.77
2022-10-04T08:32:43.532Z,14.66
2022-10-04T08:35:29.342Z,14.64
2022-10-04T08:38:24.292Z,14.73
2022-10-04T08:41:15.711Z,14.73
2022-10-04T08:44:11.097Z,14.81
2022-10-04T08:46:59.290Z,14.78
2022-10-04T08:49:35.420Z,14.82
2022-10-04T08:52:21.535Z,14.83
2022-10-04T08:55:29.346Z,14.97
2022-10-04T08:57:56.950Z,15.06
2022-10-04T09:00:49.109Z,15.03
2022-10-04T09:03:36.793Z,15.03
2022-10-04T09:06:28.592Z,15.14
2022-10-04T09:09:07.979Z,14.94
2022-10-04T09:11:38.430Z,15.05
2022-10-04T09:14:36.762Z,15.16
2022-10-04T09:17:23.160Z,15.40
2022-10-04T09:20:37.753Z,15.55
2022-10-04T09:23:15.444Z,15.58
2022-10-04T09:25:57.743Z,15.51
2022-10-04T09:28:47.238Z,15.46
2022-10-04T09:31:38.959Z,15.71
2022-10-04T09:34:24.415Z,15.84
2022-10-04T09:37:39.869Z,16.02
2022-10-04T09:40:22.209Z,16.24
2022-10-04T09:43:05.227Z,16.30
2022-10-04T09:45:56.766Z,16.18
2022-10-04T09:48:43.117Z,16.19
2022-10-04T09:51:26.126Z,16.39
2022-10-04T09:54:21.407Z,16.46
2022-10-04T09:57:13.128Z,16.47
2022-10-04T10:00:07.223Z,16.88
2022-10-04T10:03:06.729Z,17.03
2022-10-04T10:05:34.160Z,17.18
2022-10-04T10:08:18.122Z,17.35
2022-10-04T10:11:41.077Z,17.66
2022-10-04T10:14:23.576Z,17.86
2022-10-04T10:17:40.222Z,17.68
2022-10-04T10:20:28.555Z,17.39
2022-10-04T10:23:20.203Z,17.65
2022-10-04T10:26:06.386Z,17.72
2022-10-04T10:28:54.756Z,17.55
2022-10-04T10:31:42.655Z,17.60
2022-10-04T10:34:57.022Z,17.91
2022-10-04T10:37:35.952Z,18.33
2022-10-04T10:40:12.227Z,18.76
2022-10-04T10:42:42.213Z,18.97
2022-10-04T10:45:45.982Z,19.06
2022-10-04T10:48:21.233Z,19.46
2022-10-04T10:51:00.526Z,19.55
2022-10-04T10:54:05.454Z,19.62
2022-10-04T10:56:48.131Z,19.55
2022-10-04T10:59:37.445Z,18.89
2022-10-04T11:02:48.094Z,18.63
2022-10-04T11:05:34.561Z,18.52
2022-10-04T11:08:04.831Z,18.58
2022-10-04T11:11:03.461Z,18.02
2022-10-04T11:13:54.264Z,17.91
2022-10-04T11:16:47.745Z,18.38
2022-10-04T11:19:16.205Z,18.17
2022-10-04T11:21:52.514Z,18.33
2022-10-04T11:24:43.459Z,18.25
2022-10-04T11:27:16.694Z,17.81
2022-10-04T11:29:56.054Z,17.42
2022-10-04T11:33:04.824Z,17.24
2022-10-04T11:36:15.348Z,17.69
2022-10-04T11:39:21.000Z,18.41
2022-10-04T11:42:03.103Z,18.84
2022-10-04T11:44:36.729Z,18.97
2022-10-04T11:47:16.107Z,18.69
2022-10-04T11:49:49.098Z,18.41
2022-10-04T11:52:37.300Z,18.21
2022-10-04T11:55:23.966Z,18.17
2022-10-04T11:58:12.070Z,17.80
2022-10-04T12:01:15.932Z,17.39
2022-10-04T12:03:49.252Z,17.10
2022-10-04T12:07:00.010Z,16.97
2022-10-04T12:09:45.984Z,16.99
2022-10-04T12:12:47.433Z,16.90
2022-10-04T12:15:22.268Z,16.90
2022-10-04T12:18:06.471Z,17.00
2022-10-04T12:20:53.345Z,17.46
2022-10-04T12:23:53.320Z,17.88
2022-10-04T12:27:19.333Z,18.06
2022-10-04T12:30:04.518Z,17.89
2022-10-04T12:32:52.246Z,17.91
2022-10-04T12:35:56.172Z,17.74
2022-10-04T12:38:52.429Z,17.50
2022-10-04T12:41:29.626Z,17.24
2022-10-04T12:44:08.032Z,17.13
2022-10-04T12:47:14.321Z,16.98
2022-10-04T12:49:51.456Z,16.99
2022-10-04T12:52:24.697Z,17.10
2022-10-04T12:55:17.542Z,17.48
2022-10-04T12:58:00.108Z,17.84
2022-10-04T13:00:35.582Z,18.08
2022-10-04T13:03:08.737Z,18.06
2022-10-04T13:05:54.959Z,17.95
2022-10-04T13:08:34.356Z,17.74
2022-10-04T13:11:13.586Z,17.51
2022-10-04T13:13:59.724Z,17.31
2022-10-04T13:19:41.820Z,17.03
2022-10-04T13:22:11.908Z,17.01
2022-10-04T13:24:57.998Z,17.01
2022-10-04T13:27:38.450Z,17.17
2022-10-04T13:30:50.464Z,17.50
2022-10-04T13:33:36.310Z,17.76
2022-10-04T13:36:09.811Z,17.54
2022-10-04T13:38:39.558Z,17.48
2022-10-04T13:41:32.885Z,17.43
2022-10-04T13:44:15.341Z,17.34
2022-10-04T13:47:30.583Z,17.24
2022-10-04T13:50:30.589Z,17.21
2022-10-04T13:53:53.151Z,17.27
2022-10-04T13:56:59.265Z,17.07
2022-10-04T13:59:49.516Z,17.09
2022-10-04T14:02:58.567Z,17.08
2022-10-04T14:05:46.895Z,17.07
2022-10-04T14:08:33.167Z,17.08
2022-10-04T14:11:27.351Z,17.18
2022-10-04T14:14:10.310Z,17.35
2022-10-04T14:16:59.511Z,17.62
2022-10-04T14:19:42.031Z,17.74
2022-10-04T14:22:24.510Z,17.77
2022-10-04T14:25:18.867Z,17.82
2022-10-04T14:28:45.612Z,17.61
2022-10-04T14:31:37.089Z,17.34
2022-10-04T14:34:30.100Z,17.27
2022-10-04T14:37:01.109Z,17.19
2022-10-04T14:39:36.570Z,17.21
2022-10-04T14:42:25.714Z,17.28
2022-10-04T14:45:06.075Z,17.44
2022-10-04T14:48:01.965Z,17.44
2022-10-04T14:50:47.325Z,17.27
2022-10-04T14:53:41.613Z,17.13
2022-10-04T14:56:11.656Z,17.01
2022-10-04T14:59:02.577Z,16.84
2022-10-04T15:01:30.112Z,16.73
2022-10-04T15:04:11.392Z,16.67
2022-10-04T15:06:50.635Z,16.59
2022-10-04T15:09:46.710Z,16.46
2022-10-04T15:12:51.996Z,16.35
2022-10-04T15:15:13.342Z,16.27
2022-10-04T15:18:19.195Z,16.22
2022-10-04T15:20:57.247Z,16.09
2022-10-04T15:23:42.569Z,16.05
2022-10-04T15:26:19.138Z,15.97
2022-10-04T15:28:48.963Z,15.92
2022-10-04T15:31:48.345Z,15.86
2022-10-04T15:34:38.943Z,15.72
2022-10-04T15:37:12.344Z,15.51
2022-10-04T15:40:13.461Z,15.37
2022-10-04T15:42:54.646Z,15.27
2022-10-04T15:45:42.835Z,15.11
2022-10-04T15:48:48.217Z,15.00
2022-10-04T15:51:20.388Z,14.87
2022-10-04T15:54:35.841Z,14.81
2022-10-04T15:57:37.418Z,14.70
2022-10-04T16:00:32.814Z,14.64
2022-10-04T16:03:38.619Z,14.70
2022-10-04T16:06:24.092Z,14.66
2022-10-04T16:09:09.817Z,14.65
2022-10-04T16:11:40.243Z,14.58
2022-10-04T16:14:46.857Z,14.46
2022-10-04T16:17:28.852Z,14.40
2022-10-04T16:20:02.356Z,14.20
2022-10-04T16:22:31.961Z,14.03
2022-10-04T16:25:23.886Z,13.84
2022-10-04T16:27:57.432Z,13.59
2022-10-04T16:30:28.929Z,13.39
2022-10-04T16:32:59.059Z,13.22
2022-10-04T16:35:37.628Z,13.08
2022-10-04T16:38:17.232Z,12.94
2022-10-04T16:40:50.428Z,12.79
2022-10-04T16:43:19.755Z,12.63
2022-10-04T16:46:06.633Z,12.50
2022-10-04T16:48:49.439Z,12.38
2022-10-04T16:51:16.425Z,12.28
2022-10-04T16:54:07.399Z,12.23
2022-10-04T16:56:54.032Z,12.16
2022-10-04T16:59:41.621Z,12.02
2022-10-04T17:02:17.598Z,11.94
2022-10-04T17:04:57.559Z,11.88
2022-10-04T17:07:30.604Z,11.76
2022-10-04T17:10:16.646Z,11.69
2022-10-04T17:12:46.923Z,11.60
2022-10-04T17:15:19.496Z,11.50
2022-10-04T17:17:46.504Z,11.43
2022-10-04T17:20:29.735Z,11.35
2022-10-04T17:23:12.724Z,11.27
2022-10-04T17:25:47.252Z,11.25
2022-10-04T17:28:14.512Z,11.16
2022-10-04T17:30:50.939Z,11.04
2022-10-04T17:33:36.257Z,10.99
2022-10-04T17:36:09.201Z,10.93
2022-10-04T17:39:01.425Z,10.83
2022-10-04T17:42:08.794Z,10.77
2022-10-04T17:45:07.982Z,10.79
2022-10-04T17:48:32.753Z,10.72
2022-10-04T17:51:28.063Z,10.69
2022-10-04T17:54:22.329Z,10.67
2022-10-04T17:56:58.935Z,10.68
2022-10-04T17:59:31.453Z,10.69
2022-10-04T18:02:11.824Z,10.67
2022-10-04T18:04:50.656Z,10.60
2022-10-04T18:07:20.164Z,10.54
2022-10-04T18:09:59.295Z,10.53
2022-10-04T18:12:37.651Z,10.55
2022-10-04T18:15:27.010Z,10.59
2022-10-04T18:18:07.231Z,10.59
2022-10-04T18:20:39.532Z,10.50
2022-10-04T18:23:24.822Z,10.44
2022-10-04T18:25:57.593Z,10.31
2022-10-04T18:28:28.986Z,10.16
2022-10-04T18:31:00.621Z,10.13
2022-10-04T18:33:40.648Z,10.22
2022-10-04T18:36:21.125Z,10.13
2022-10-04T18:39:21.085Z,9.98
2022-10-04T18:42:21.074Z,9.91
2022-10-04T18:44:59.563Z,9.89
2022-10-04T18:47:37.356Z,9.81
2022-10-04T18:50:35.998Z,9.86
2022-10-04T18:53:39.854Z,9.85
2022-10-04T18:56:10.124Z,9.88
2022-10-04T18:59:16.706Z,9.76
2022-10-04T19:02:01.555Z,9.74
2022-10-04T19:05:04.837Z,9.72
2022-10-04T19:07:51.590Z,9.68
2022-10-04T19:10:47.095Z,9.62
2022-10-04T19:13:24.187Z,9.59
2022-10-04T19:16:12.082Z,9.56
2022-10-04T19:19:14.857Z,9.49
2022-10-04T19:21:59.222Z,9.53
2022-10-04T19:24:32.735Z,9.53
2022-10-04T19:27:13.341Z,9.55
2022-10-04T19:29:51.625Z,9.53
2022-10-04T19:32:58.070Z,9.40
2022-10-04T19:36:18.011Z,9.32
2022-10-04T19:39:27.863Z,9.21
2022-10-04T19:42:06.030Z,9.20
2022-10-04T19:45:08.400Z,9.16
2022-10-04T19:47:50.444Z,9.10
2022-10-04T19:50:24.006Z,9.12
2022-10-04T19:53:12.988Z,9.04
2022-10-04T19:55:49.581Z,8.98
2022-10-04T19:58:39.004Z,9.01
2022-10-04T20:01:21.810Z,8.87
2022-10-04T20:04:10.851Z,8.85
2022-10-04T20:06:48.293Z,8.80
2022-10-04T20:09:51.612Z,8.77
2022-10-04T20:12:40.871Z,8.71
2022-10-04T20:15:17.180Z,8.68
2022-10-04T20:17:46.274Z,8.65
2022-10-04T20:20:16.713Z,8.55
2022-10-04T20:22:50.432Z,8.46
2022-10-04T20:25:45.892Z,8.41
2022-10-04T20:28:28.922Z,8.39
2022-10-04T20:31:01.502Z,8.44
2022-10-04T20:33:34.723Z,8.39
2022-10-04T20:36:05.709Z,8.31
2022-10-04T20:38:53.899Z,8.23
2022-10-04T20:41:50.513Z,8.23
2022-10-04T20:44:44.334Z,8.16
2022-10-04T20:47:49.258Z,8.10
2022-10-04T20:50:25.776Z,8.07
2022-10-04T20:52:59.788Z,8.10
2022-10-04T20:55:36.642Z,8.05
2022-10-04T20:58:21.274Z,7.97
2022-10-04T21:00:58.732Z,7.98
2022-10-04T21:03:26.122Z,7.95
2022-10-04T21:06:01.288Z,7.94
2022-10-04T21:08:29.674Z,7.91
2022-10-04T21:11:11.629Z,7.86
2022-10-04T21:14:00.721Z,7.82
2022-10-04T21:16:47.817Z,7.79
2022-10-04T21:19:36.485Z,7.78
2022-10-04T21:22:04.323Z,7.75
2022-10-04T21:24:42.035Z,7.72
2022-10-04T21:27:12.175Z,7.69
2022-10-04T21:29:39.934Z,7.65
2022-10-04T21:32:07.010Z,7.68
2022-10-04T21:35:03.182Z,7.65
2022-10-04T21:37:25.732Z,7.59
2022-10-04T21:39:53.033Z,7.58
2022-10-04T21:42:20.074Z,7.56
2022-10-04T21:44:47.357Z,7.51
2022-10-04T21:47:14.703Z,7.49
2022-10-04T21:49:41.820Z,7.47
2022-10-04T21:52:09.076Z,7.43
2022-10-04T21:54:36.146Z,7.41
2022-10-04T21:57:03.119Z,7.37
2022-10-04T21:59:30.374Z,7.36
2022-10-04T22:01:57.386Z,7.32
2022-10-04T22:04:24.507Z,7.28
2022-10-04T22:06:51.746Z,7.26
2022-10-04T22:09:19.013Z,7.24
2022-10-04T22:11:46.033Z,7.26
2022-10-04T22:14:16.451Z,7.21
2022-10-04T22:16:44.375Z,7.16
2022-10-04T22:19:11.587Z,7.15
2022-10-04T22:21:41.092Z,7.15
2022-10-04T22:24:18.072Z,7.15
2022-10-04T22:26:48.300Z,7.14
2022-10-04T22:29:17.902Z,7.16
2022-10-04T22:31:52.963Z,7.10
2022-10-04T22:34:23.001Z,7.04
2022-10-04T22:36:52.108Z,6.98
2022-10-04T22:39:20.502Z,6.93
2022-10-04T22:41:55.827Z,6.88
2022-10-04T22:44:30.342Z,6.80
2022-10-04T22:46:59.922Z,6.73
2022-10-04T22:49:30.985Z,6.66
2022-10-04T22:52:00.818Z,6.60
2022-10-04T22:54:32.271Z,6.55
2022-10-04T22:56:59.302Z,6.51
2022-10-04T22:59:39.593Z,6.45
2022-10-04T23:02:13.167Z,6.40
2022-10-04T23:04:43.470Z,6.35
2022-10-04T23:07:10.847Z,6.32
2022-10-04T23:09:37.896Z,6.29
2022-10-04T23:12:08.361Z,6.23
2022-10-04T23:14:39.814Z,6.22
2022-10-04T23:17:29.685Z,6.18
2022-10-04T23:20:01.208Z,6.14
2022-10-04T23:22:30.410Z,6.11
2022-10-04T23:24:58.081Z,6.10
2022-10-04T23:27:25.174Z,6.06
2022-10-04T23:30:02.844Z,6.04
2022-10-04T23:32:34.281Z,6.03
2022-10-04T23:35:05.173Z,5.99
2022-10-04T23:37:32.685Z,5.96
2022-10-04T23:40:01.954Z,5.95
2022-10-04T23:42:32.756Z,5.94
2022-10-04T23:45:01.790Z,5.92
2022-10-04T23:47:37.014Z,5.90
2022-10-04T23:50:24.687Z,5.88
2022-10-04T23:52:55.321Z,5.91
2022-10-04T23:55:24.126Z,5.88
2022-10-04T23:57:51.232Z,5.84
